sensor_id;sensor_type;location;lat;lon;timestamp;P1;durP1;ratioP1;P2;durP2;ratioP2
52878;SDS011;38747;53.140;6.498;2022-07-19T00:01:43;7.32;;;5.15;;
52878;SDS011;38747;53.140;6.498;2022-07-19T00:06:35;7.70;;;5.20;;
52878;SDS011;38747;53.140;6.498;2022-07-19T00:11:26;8.38;;;4.68;;
52878;SDS011;38747;53.140;6.498;2022-07-19T00:16:17;8.85;;;5.00;;
52878;SDS011;38747;53.140;6.498;2022-07-19T00:21:09;11.52;;;5.03;;
52878;SDS011;38747;53.140;6.498;2022-07-19T00:26:03;7.03;;;4.90;;
52878;SDS011;38747;53.140;6.498;2022-07-19T00:28:29;10.02;;;4.57;;
52878;SDS011;38747;53.140;6.498;2022-07-19T00:33:21;8.43;;;5.03;;
52878;SDS011;38747;53.140;6.498;2022-07-19T00:38:12;8.55;;;4.47;;
52878;SDS011;38747;53.140;6.498;2022-07-19T00:40:39;7.15;;;4.80;;
52878;SDS011;38747;53.140;6.498;2022-07-19T00:43:06;7.03;;;4.60;;
52878;SDS011;38747;53.140;6.498;2022-07-19T00:45:32;7.95;;;4.60;;
52878;SDS011;38747;53.140;6.498;2022-07-19T00:50:24;11.10;;;5.50;;
52878;SDS011;38747;53.140;6.498;2022-07-19T00:55:20;8.05;;;5.40;;
52878;SDS011;38747;53.140;6.498;2022-07-19T00:57:47;8.93;;;4.95;;
52878;SDS011;38747;53.140;6.498;2022-07-19T01:05:06;9.38;;;5.07;;
52878;SDS011;38747;53.140;6.498;2022-07-19T01:07:36;8.10;;;4.82;;
52878;SDS011;38747;53.140;6.498;2022-07-19T01:10:04;8.95;;;4.75;;
52878;SDS011;38747;53.140;6.498;2022-07-19T01:12:31;7.28;;;4.90;;
52878;SDS011;38747;53.140;6.498;2022-07-19T01:14:58;7.32;;;4.88;;
52878;SDS011;38747;53.140;6.498;2022-07-19T01:17:25;7.47;;;5.03;;
52878;SDS011;38747;53.140;6.498;2022-07-19T01:22:17;8.35;;;5.10;;
52878;SDS011;38747;53.140;6.498;2022-07-19T01:27:08;7.68;;;4.70;;
52878;SDS011;38747;53.140;6.498;2022-07-19T01:32:03;6.68;;;4.70;;
52878;SDS011;38747;53.140;6.498;2022-07-19T01:34:30;7.72;;;4.68;;
52878;SDS011;38747;53.140;6.498;2022-07-19T01:36:56;7.80;;;4.60;;
52878;SDS011;38747;53.140;6.498;2022-07-19T01:41:47;8.40;;;4.72;;
52878;SDS011;38747;53.140;6.498;2022-07-19T01:46:38;7.90;;;4.78;;
52878;SDS011;38747;53.140;6.498;2022-07-19T01:49:07;9.25;;;5.05;;
52878;SDS011;38747;53.140;6.498;2022-07-19T01:53:58;9.88;;;5.45;;
52878;SDS011;38747;53.140;6.498;2022-07-19T01:58:49;10.63;;;6.13;;
52878;SDS011;38747;53.140;6.498;2022-07-19T02:03:40;8.60;;;5.03;;
52878;SDS011;38747;53.140;6.498;2022-07-19T02:08:31;6.88;;;4.82;;
52878;SDS011;38747;53.140;6.498;2022-07-19T02:13:24;10.65;;;4.90;;
52878;SDS011;38747;53.140;6.498;2022-07-19T02:15:50;9.73;;;5.10;;
52878;SDS011;38747;53.140;6.498;2022-07-19T02:20:41;7.20;;;4.80;;
52878;SDS011;38747;53.140;6.498;2022-07-19T02:25:32;13.10;;;5.30;;
52878;SDS011;38747;53.140;6.498;2022-07-19T02:30:25;8.40;;;5.50;;
52878;SDS011;38747;53.140;6.498;2022-07-19T02:35:16;8.90;;;5.18;;
52878;SDS011;38747;53.140;6.498;2022-07-19T02:37:43;6.93;;;4.85;;
52878;SDS011;38747;53.140;6.498;2022-07-19T02:42:35;10.93;;;5.50;;
52878;SDS011;38747;53.140;6.498;2022-07-19T02:47:26;7.85;;;4.78;;
52878;SDS011;38747;53.140;6.498;2022-07-19T02:52:17;8.18;;;5.32;;
52878;SDS011;38747;53.140;6.498;2022-07-19T02:57:08;11.88;;;5.65;;
52878;SDS011;38747;53.140;6.498;2022-07-19T03:01:59;10.13;;;5.90;;
52878;SDS011;38747;53.140;6.498;2022-07-19T03:06:50;12.85;;;6.25;;
52878;SDS011;38747;53.140;6.498;2022-07-19T03:11:41;9.35;;;5.88;;
52878;SDS011;38747;53.140;6.498;2022-07-19T03:16:33;10.63;;;5.90;;
52878;SDS011;38747;53.140;6.498;2022-07-19T03:18:58;10.40;;;5.80;;
52878;SDS011;38747;53.140;6.498;2022-07-19T03:23:49;9.27;;;6.22;;
52878;SDS011;38747;53.140;6.498;2022-07-19T03:28:41;10.57;;;6.05;;
52878;SDS011;38747;53.140;6.498;2022-07-19T03:33:32;8.50;;;5.60;;
52878;SDS011;38747;53.140;6.498;2022-07-19T03:38:23;7.95;;;5.68;;
52878;SDS011;38747;53.140;6.498;2022-07-19T03:43:15;7.22;;;5.13;;
52878;SDS011;38747;53.140;6.498;2022-07-19T03:45:42;8.60;;;5.35;;
52878;SDS011;38747;53.140;6.498;2022-07-19T03:48:08;10.85;;;5.95;;
52878;SDS011;38747;53.140;6.498;2022-07-19T03:52:59;9.65;;;5.57;;
52878;SDS011;38747;53.140;6.498;2022-07-19T03:57:50;8.68;;;5.53;;
52878;SDS011;38747;53.140;6.498;2022-07-19T04:00:16;7.82;;;5.50;;
52878;SDS011;38747;53.140;6.498;2022-07-19T04:05:07;8.73;;;5.40;;
52878;SDS011;38747;53.140;6.498;2022-07-19T04:07:33;9.85;;;5.55;;
52878;SDS011;38747;53.140;6.498;2022-07-19T04:12:24;9.32;;;5.57;;
52878;SDS011;38747;53.140;6.498;2022-07-19T04:17:16;8.48;;;5.53;;
52878;SDS011;38747;53.140;6.498;2022-07-19T04:19:42;8.63;;;5.72;;
52878;SDS011;38747;53.140;6.498;2022-07-19T04:24:33;8.63;;;5.40;;
52878;SDS011;38747;53.140;6.498;2022-07-19T04:29:25;10.27;;;5.13;;
52878;SDS011;38747;53.140;6.498;2022-07-19T04:34:16;8.63;;;5.75;;
52878;SDS011;38747;53.140;6.498;2022-07-19T04:39:07;8.63;;;5.32;;
52878;SDS011;38747;53.140;6.498;2022-07-19T04:43:58;10.65;;;5.95;;
52878;SDS011;38747;53.140;6.498;2022-07-19T04:48:49;8.80;;;5.28;;
52878;SDS011;38747;53.140;6.498;2022-07-19T04:53:40;13.25;;;5.35;;
52878;SDS011;38747;53.140;6.498;2022-07-19T04:58:31;10.20;;;5.68;;
52878;SDS011;38747;53.140;6.498;2022-07-19T05:03:22;7.00;;;5.28;;
52878;SDS011;38747;53.140;6.498;2022-07-19T05:08:14;11.18;;;5.40;;
52878;SDS011;38747;53.140;6.498;2022-07-19T05:13:05;7.50;;;4.90;;
52878;SDS011;38747;53.140;6.498;2022-07-19T05:17:56;6.95;;;5.10;;
52878;SDS011;38747;53.140;6.498;2022-07-19T05:22:47;9.68;;;5.13;;
52878;SDS011;38747;53.140;6.498;2022-07-19T05:25:14;8.93;;;5.10;;
52878;SDS011;38747;53.140;6.498;2022-07-19T05:27:41;11.07;;;5.43;;
52878;SDS011;38747;53.140;6.498;2022-07-19T05:30:08;6.70;;;5.00;;
52878;SDS011;38747;53.140;6.498;2022-07-19T05:32:34;7.97;;;5.00;;
52878;SDS011;38747;53.140;6.498;2022-07-19T05:37:26;7.63;;;4.75;;
52878;SDS011;38747;53.140;6.498;2022-07-19T05:42:17;10.63;;;5.55;;
52878;SDS011;38747;53.140;6.498;2022-07-19T05:47:10;8.02;;;4.53;;
52878;SDS011;38747;53.140;6.498;2022-07-19T05:49:36;8.77;;;4.60;;
52878;SDS011;38747;53.140;6.498;2022-07-19T05:54:27;6.50;;;4.55;;
52878;SDS011;38747;53.140;6.498;2022-07-19T05:59:19;9.00;;;4.85;;
52878;SDS011;38747;53.140;6.498;2022-07-19T06:01:47;7.88;;;4.70;;
52878;SDS011;38747;53.140;6.498;2022-07-19T06:04:13;7.55;;;4.55;;
52878;SDS011;38747;53.140;6.498;2022-07-19T06:09:05;9.65;;;4.63;;
52878;SDS011;38747;53.140;6.498;2022-07-19T06:11:32;9.15;;;4.88;;
52878;SDS011;38747;53.140;6.498;2022-07-19T06:16:24;9.65;;;4.30;;
52878;SDS011;38747;53.140;6.498;2022-07-19T06:21:17;6.88;;;4.20;;
52878;SDS011;38747;53.140;6.498;2022-07-19T06:23:44;10.60;;;4.45;;
52878;SDS011;38747;53.140;6.498;2022-07-19T06:26:11;7.20;;;4.28;;
52878;SDS011;38747;53.140;6.498;2022-07-19T06:28:37;8.32;;;4.65;;
52878;SDS011;38747;53.140;6.498;2022-07-19T06:31:03;8.27;;;4.57;;
52878;SDS011;38747;53.140;6.498;2022-07-19T06:35:55;9.25;;;4.38;;
52878;SDS011;38747;53.140;6.498;2022-07-19T06:40:46;8.15;;;4.43;;
52878;SDS011;38747;53.140;6.498;2022-07-19T06:45:38;6.35;;;4.20;;
52878;SDS011;38747;53.140;6.498;2022-07-19T06:48:04;9.35;;;4.60;;
52878;SDS011;38747;53.140;6.498;2022-07-19T06:52:55;8.05;;;4.07;;
52878;SDS011;38747;53.140;6.498;2022-07-19T06:57:47;7.72;;;4.35;;
52878;SDS011;38747;53.140;6.498;2022-07-19T07:02:39;7.35;;;4.03;;
52878;SDS011;38747;53.140;6.498;2022-07-19T07:05:05;6.63;;;4.28;;
52878;SDS011;38747;53.140;6.498;2022-07-19T07:07:32;7.15;;;4.10;;
52878;SDS011;38747;53.140;6.498;2022-07-19T07:09:58;7.57;;;3.58;;
52878;SDS011;38747;53.140;6.498;2022-07-19T07:12:26;5.70;;;4.00;;
52878;SDS011;38747;53.140;6.498;2022-07-19T07:17:18;5.78;;;3.85;;
52878;SDS011;38747;53.140;6.498;2022-07-19T07:22:09;5.20;;;3.72;;
52878;SDS011;38747;53.140;6.498;2022-07-19T07:24:34;6.72;;;3.70;;
52878;SDS011;38747;53.140;6.498;2022-07-19T07:27:00;7.10;;;3.85;;
52878;SDS011;38747;53.140;6.498;2022-07-19T07:31:51;10.48;;;3.72;;
52878;SDS011;38747;53.140;6.498;2022-07-19T07:34:16;8.45;;;3.92;;
52878;SDS011;38747;53.140;6.498;2022-07-19T07:36:42;5.60;;;3.53;;
52878;SDS011;38747;53.140;6.498;2022-07-19T07:39:09;5.68;;;3.70;;
52878;SDS011;38747;53.140;6.498;2022-07-19T07:41:35;10.13;;;3.85;;
52878;SDS011;38747;53.140;6.498;2022-07-19T07:46:27;8.52;;;3.58;;
52878;SDS011;38747;53.140;6.498;2022-07-19T07:48:52;7.53;;;3.90;;
52878;SDS011;38747;53.140;6.498;2022-07-19T07:51:18;7.30;;;3.65;;
52878;SDS011;38747;53.140;6.498;2022-07-19T07:53:44;4.97;;;3.17;;
52878;SDS011;38747;53.140;6.498;2022-07-19T07:56:09;8.13;;;3.65;;
52878;SDS011;38747;53.140;6.498;2022-07-19T07:58:35;4.80;;;3.70;;
52878;SDS011;38747;53.140;6.498;2022-07-19T08:01:00;7.82;;;3.67;;
52878;SDS011;38747;53.140;6.498;2022-07-19T08:03:26;9.15;;;3.90;;
52878;SDS011;38747;53.140;6.498;2022-07-19T08:05:52;8.35;;;3.20;;
52878;SDS011;38747;53.140;6.498;2022-07-19T08:08:17;7.40;;;3.92;;
52878;SDS011;38747;53.140;6.498;2022-07-19T08:10:43;6.85;;;3.40;;
52878;SDS011;38747;53.140;6.498;2022-07-19T08:13:09;5.45;;;3.10;;
52878;SDS011;38747;53.140;6.498;2022-07-19T08:15:36;4.82;;;3.38;;
52878;SDS011;38747;53.140;6.498;2022-07-19T08:18:02;7.35;;;3.53;;
52878;SDS011;38747;53.140;6.498;2022-07-19T08:20:28;6.20;;;3.25;;
52878;SDS011;38747;53.140;6.498;2022-07-19T08:22:54;6.88;;;3.40;;
52878;SDS011;38747;53.140;6.498;2022-07-19T08:25:19;3.78;;;2.92;;
52878;SDS011;38747;53.140;6.498;2022-07-19T08:27:45;7.00;;;3.10;;
52878;SDS011;38747;53.140;6.498;2022-07-19T08:30:11;5.85;;;3.25;;
52878;SDS011;38747;53.140;6.498;2022-07-19T08:32:37;5.03;;;2.92;;
52878;SDS011;38747;53.140;6.498;2022-07-19T08:35:08;6.00;;;3.30;;
52878;SDS011;38747;53.140;6.498;2022-07-19T08:37:34;5.10;;;2.78;;
52878;SDS011;38747;53.140;6.498;2022-07-19T08:40:00;8.13;;;3.13;;
52878;SDS011;38747;53.140;6.498;2022-07-19T08:42:26;4.70;;;2.78;;
52878;SDS011;38747;53.140;6.498;2022-07-19T08:44:53;6.28;;;2.90;;
52878;SDS011;38747;53.140;6.498;2022-07-19T08:47:19;4.45;;;2.80;;
52878;SDS011;38747;53.140;6.498;2022-07-19T08:49:46;4.95;;;2.50;;
52878;SDS011;38747;53.140;6.498;2022-07-19T08:52:13;6.03;;;2.95;;
52878;SDS011;38747;53.140;6.498;2022-07-19T08:54:39;8.57;;;2.72;;
52878;SDS011;38747;53.140;6.498;2022-07-19T08:57:05;4.88;;;2.65;;
52878;SDS011;38747;53.140;6.498;2022-07-19T08:59:49;5.40;;;2.58;;
52878;SDS011;38747;53.140;6.498;2022-07-19T09:02:16;5.38;;;2.58;;
52878;SDS011;38747;53.140;6.498;2022-07-19T09:04:41;5.70;;;2.25;;
52878;SDS011;38747;53.140;6.498;2022-07-19T09:07:07;4.07;;;2.67;;
52878;SDS011;38747;53.140;6.498;2022-07-19T09:09:33;4.93;;;2.63;;
52878;SDS011;38747;53.140;6.498;2022-07-19T09:12:02;5.85;;;3.00;;
52878;SDS011;38747;53.140;6.498;2022-07-19T09:14:30;6.93;;;2.35;;
52878;SDS011;38747;53.140;6.498;2022-07-19T09:17:00;4.05;;;2.42;;
52878;SDS011;38747;53.140;6.498;2022-07-19T09:19:29;5.72;;;2.60;;
52878;SDS011;38747;53.140;6.498;2022-07-19T09:22:03;4.82;;;2.40;;
52878;SDS011;38747;53.140;6.498;2022-07-19T09:24:31;4.07;;;2.28;;
52878;SDS011;38747;53.140;6.498;2022-07-19T09:27:03;9.95;;;2.58;;
52878;SDS011;38747;53.140;6.498;2022-07-19T09:29:33;4.07;;;2.65;;
52878;SDS011;38747;53.140;6.498;2022-07-19T09:34:32;5.28;;;2.38;;
52878;SDS011;38747;53.140;6.498;2022-07-19T09:37:09;4.38;;;2.00;;
52878;SDS011;38747;53.140;6.498;2022-07-19T09:39:37;3.80;;;2.10;;
52878;SDS011;38747;53.140;6.498;2022-07-19T09:42:15;3.00;;;2.00;;
52878;SDS011;38747;53.140;6.498;2022-07-19T09:44:43;5.60;;;2.30;;
52878;SDS011;38747;53.140;6.498;2022-07-19T09:47:09;5.30;;;2.60;;
52878;SDS011;38747;53.140;6.498;2022-07-19T09:49:35;5.95;;;2.42;;
52878;SDS011;38747;53.140;6.498;2022-07-19T09:52:01;3.45;;;2.10;;
52878;SDS011;38747;53.140;6.498;2022-07-19T09:54:28;4.22;;;2.33;;
52878;SDS011;38747;53.140;6.498;2022-07-19T09:56:57;6.95;;;2.15;;
52878;SDS011;38747;53.140;6.498;2022-07-19T09:59:24;3.28;;;2.00;;
52878;SDS011;38747;53.140;6.498;2022-07-19T10:01:52;3.50;;;2.20;;
52878;SDS011;38747;53.140;6.498;2022-07-19T10:04:20;3.38;;;2.10;;
52878;SDS011;38747;53.140;6.498;2022-07-19T10:06:48;3.70;;;2.00;;
52878;SDS011;38747;53.140;6.498;2022-07-19T10:09:16;5.75;;;2.05;;
52878;SDS011;38747;53.140;6.498;2022-07-19T10:11:43;6.53;;;1.80;;
52878;SDS011;38747;53.140;6.498;2022-07-19T10:14:09;3.13;;;2.03;;
52878;SDS011;38747;53.140;6.498;2022-07-19T10:19:30;5.20;;;2.17;;
52878;SDS011;38747;53.140;6.498;2022-07-19T10:22:13;5.30;;;2.42;;
52878;SDS011;38747;53.140;6.498;2022-07-19T10:24:44;2.42;;;1.75;;
52878;SDS011;38747;53.140;6.498;2022-07-19T10:30:15;6.25;;;1.90;;
52878;SDS011;38747;53.140;6.498;2022-07-19T10:32:42;6.75;;;1.90;;
52878;SDS011;38747;53.140;6.498;2022-07-19T10:40:39;4.32;;;1.80;;
52878;SDS011;38747;53.140;6.498;2022-07-19T10:43:17;6.05;;;2.00;;
52878;SDS011;38747;53.140;6.498;2022-07-19T10:48:25;4.00;;;2.00;;
52878;SDS011;38747;53.140;6.498;2022-07-19T10:51:03;3.97;;;1.73;;
52878;SDS011;38747;53.140;6.498;2022-07-19T10:58:47;4.03;;;2.15;;
52878;SDS011;38747;53.140;6.498;2022-07-19T11:01:17;2.75;;;1.83;;
52878;SDS011;38747;53.140;6.498;2022-07-19T11:03:44;5.78;;;2.00;;
52878;SDS011;38747;53.140;6.498;2022-07-19T11:06:18;4.05;;;1.90;;
52878;SDS011;38747;53.140;6.498;2022-07-19T11:08:45;2.78;;;1.80;;
52878;SDS011;38747;53.140;6.498;2022-07-19T11:11:12;3.38;;;2.00;;
52878;SDS011;38747;53.140;6.498;2022-07-19T11:13:42;5.13;;;1.67;;
52878;SDS011;38747;53.140;6.498;2022-07-19T11:16:09;5.28;;;2.00;;
52878;SDS011;38747;53.140;6.498;2022-07-19T11:18:36;7.10;;;2.10;;
52878;SDS011;38747;53.140;6.498;2022-07-19T11:21:03;5.25;;;1.90;;
52878;SDS011;38747;53.140;6.498;2022-07-19T11:23:30;2.90;;;2.08;;
52878;SDS011;38747;53.140;6.498;2022-07-19T11:26:14;3.15;;;1.90;;
52878;SDS011;38747;53.140;6.498;2022-07-19T11:28:43;3.75;;;1.80;;
52878;SDS011;38747;53.140;6.498;2022-07-19T11:31:11;2.72;;;1.80;;
52878;SDS011;38747;53.140;6.498;2022-07-19T11:33:44;4.65;;;1.70;;
52878;SDS011;38747;53.140;6.498;2022-07-19T11:36:12;5.90;;;1.75;;
52878;SDS011;38747;53.140;6.498;2022-07-19T11:38:43;2.72;;;1.90;;
52878;SDS011;38747;53.140;6.498;2022-07-19T11:41:20;5.85;;;1.77;;
52878;SDS011;38747;53.140;6.498;2022-07-19T11:43:54;4.38;;;1.73;;
52878;SDS011;38747;53.140;6.498;2022-07-19T11:46:22;5.90;;;1.77;;
52878;SDS011;38747;53.140;6.498;2022-07-19T11:48:49;2.00;;;1.50;;
52878;SDS011;38747;53.140;6.498;2022-07-19T11:51:19;3.65;;;1.60;;
52878;SDS011;38747;53.140;6.498;2022-07-19T11:53:47;3.13;;;1.75;;
52878;SDS011;38747;53.140;6.498;2022-07-19T11:56:23;3.85;;;1.60;;
52878;SDS011;38747;53.140;6.498;2022-07-19T11:58:51;4.22;;;1.60;;
52878;SDS011;38747;53.140;6.498;2022-07-19T12:01:26;2.22;;;1.60;;
52878;SDS011;38747;53.140;6.498;2022-07-19T12:03:56;4.47;;;1.40;;
52878;SDS011;38747;53.140;6.498;2022-07-19T12:06:39;2.25;;;1.42;;
52878;SDS011;38747;53.140;6.498;2022-07-19T12:09:06;4.80;;;1.70;;
52878;SDS011;38747;53.140;6.498;2022-07-19T12:11:42;3.85;;;1.85;;
52878;SDS011;38747;53.140;6.498;2022-07-19T12:14:18;4.93;;;1.55;;
52878;SDS011;38747;53.140;6.498;2022-07-19T12:16:49;2.63;;;1.60;;
52878;SDS011;38747;53.140;6.498;2022-07-19T12:19:16;2.75;;;1.80;;
52878;SDS011;38747;53.140;6.498;2022-07-19T12:21:45;3.42;;;1.42;;
52878;SDS011;38747;53.140;6.498;2022-07-19T12:24:12;2.65;;;1.67;;
52878;SDS011;38747;53.140;6.498;2022-07-19T12:31:52;4.00;;;1.48;;
52878;SDS011;38747;53.140;6.498;2022-07-19T12:34:35;4.97;;;1.60;;
52878;SDS011;38747;53.140;6.498;2022-07-19T12:37:30;2.80;;;1.63;;
52878;SDS011;38747;53.140;6.498;2022-07-19T12:40:08;1.83;;;1.30;;
52878;SDS011;38747;53.140;6.498;2022-07-19T12:42:49;1.95;;;1.50;;
52878;SDS011;38747;53.140;6.498;2022-07-19T12:45:29;3.00;;;1.70;;
52878;SDS011;38747;53.140;6.498;2022-07-19T12:47:55;3.53;;;1.63;;
52878;SDS011;38747;53.140;6.498;2022-07-19T12:50:26;4.88;;;1.67;;
52878;SDS011;38747;53.140;6.498;2022-07-19T12:52:52;2.97;;;1.70;;
52878;SDS011;38747;53.140;6.498;2022-07-19T12:55:20;5.90;;;1.50;;
52878;SDS011;38747;53.140;6.498;2022-07-19T12:57:47;3.17;;;1.77;;
52878;SDS011;38747;53.140;6.498;2022-07-19T13:00:13;4.65;;;1.52;;
52878;SDS011;38747;53.140;6.498;2022-07-19T13:02:40;5.85;;;1.85;;
52878;SDS011;38747;53.140;6.498;2022-07-19T13:05:06;6.65;;;1.83;;
52878;SDS011;38747;53.140;6.498;2022-07-19T13:07:32;3.28;;;1.80;;
52878;SDS011;38747;53.140;6.498;2022-07-19T13:10:01;6.95;;;1.88;;
52878;SDS011;38747;53.140;6.498;2022-07-19T13:12:26;5.38;;;1.75;;
52878;SDS011;38747;53.140;6.498;2022-07-19T13:14:52;3.83;;;1.50;;
52878;SDS011;38747;53.140;6.498;2022-07-19T13:17:18;3.72;;;1.70;;
52878;SDS011;38747;53.140;6.498;2022-07-19T13:19:44;5.07;;;1.90;;
52878;SDS011;38747;53.140;6.498;2022-07-19T13:22:09;3.38;;;1.88;;
52878;SDS011;38747;53.140;6.498;2022-07-19T13:24:35;2.45;;;2.00;;
52878;SDS011;38747;53.140;6.498;2022-07-19T13:27:01;5.22;;;1.70;;
52878;SDS011;38747;53.140;6.498;2022-07-19T13:29:26;2.63;;;1.70;;
52878;SDS011;38747;53.140;6.498;2022-07-19T13:31:52;8.02;;;1.88;;
52878;SDS011;38747;53.140;6.498;2022-07-19T13:34:18;6.13;;;1.77;;
52878;SDS011;38747;53.140;6.498;2022-07-19T13:36:43;3.33;;;1.52;;
52878;SDS011;38747;53.140;6.498;2022-07-19T13:39:09;3.63;;;1.70;;
52878;SDS011;38747;53.140;6.498;2022-07-19T13:41:36;2.95;;;1.75;;
52878;SDS011;38747;53.140;6.498;2022-07-19T13:44:03;7.32;;;1.98;;
52878;SDS011;38747;53.140;6.498;2022-07-19T13:46:30;3.83;;;1.63;;
52878;SDS011;38747;53.140;6.498;2022-07-19T13:48:56;2.55;;;1.77;;
52878;SDS011;38747;53.140;6.498;2022-07-19T13:51:22;4.70;;;1.70;;
52878;SDS011;38747;53.140;6.498;2022-07-19T13:53:48;1.98;;;1.60;;
52878;SDS011;38747;53.140;6.498;2022-07-19T13:56:14;3.10;;;1.65;;
52878;SDS011;38747;53.140;6.498;2022-07-19T13:58:40;5.18;;;1.70;;
52878;SDS011;38747;53.140;6.498;2022-07-19T14:01:05;6.72;;;1.70;;
52878;SDS011;38747;53.140;6.498;2022-07-19T14:03:31;4.30;;;1.60;;
52878;SDS011;38747;53.140;6.498;2022-07-19T14:05:57;3.95;;;1.80;;
52878;SDS011;38747;53.140;6.498;2022-07-19T14:08:22;2.28;;;1.27;;
52878;SDS011;38747;53.140;6.498;2022-07-19T14:10:48;2.58;;;1.80;;
52878;SDS011;38747;53.140;6.498;2022-07-19T14:13:17;3.20;;;1.50;;
52878;SDS011;38747;53.140;6.498;2022-07-19T14:15:42;4.70;;;1.70;;
52878;SDS011;38747;53.140;6.498;2022-07-19T14:18:08;4.18;;;1.70;;
52878;SDS011;38747;53.140;6.498;2022-07-19T14:20:35;3.50;;;1.55;;
52878;SDS011;38747;53.140;6.498;2022-07-19T14:23:01;1.95;;;1.60;;
52878;SDS011;38747;53.140;6.498;2022-07-19T14:25:26;3.58;;;1.70;;
52878;SDS011;38747;53.140;6.498;2022-07-19T14:27:52;4.65;;;1.80;;
52878;SDS011;38747;53.140;6.498;2022-07-19T14:30:18;4.35;;;1.58;;
52878;SDS011;38747;53.140;6.498;2022-07-19T14:32:44;4.25;;;1.63;;
52878;SDS011;38747;53.140;6.498;2022-07-19T14:35:09;6.03;;;1.73;;
52878;SDS011;38747;53.140;6.498;2022-07-19T14:37:35;6.90;;;1.67;;
52878;SDS011;38747;53.140;6.498;2022-07-19T14:40:00;5.45;;;1.80;;
52878;SDS011;38747;53.140;6.498;2022-07-19T14:42:26;6.40;;;1.70;;
52878;SDS011;38747;53.140;6.498;2022-07-19T14:44:54;5.80;;;1.77;;
52878;SDS011;38747;53.140;6.498;2022-07-19T14:47:21;3.63;;;1.60;;
52878;SDS011;38747;53.140;6.498;2022-07-19T14:49:46;4.88;;;1.33;;
52878;SDS011;38747;53.140;6.498;2022-07-19T14:52:12;3.65;;;1.83;;
52878;SDS011;38747;53.140;6.498;2022-07-19T14:54:38;4.53;;;1.60;;
52878;SDS011;38747;53.140;6.498;2022-07-19T14:57:03;1.67;;;1.23;;
52878;SDS011;38747;53.140;6.498;2022-07-19T14:59:29;4.28;;;1.65;;
52878;SDS011;38747;53.140;6.498;2022-07-19T15:01:55;2.97;;;1.60;;
52878;SDS011;38747;53.140;6.498;2022-07-19T15:04:20;6.30;;;1.50;;
52878;SDS011;38747;53.140;6.498;2022-07-19T15:06:46;3.58;;;1.60;;
52878;SDS011;38747;53.140;6.498;2022-07-19T15:09:12;3.72;;;1.90;;
52878;SDS011;38747;53.140;6.498;2022-07-19T15:11:38;3.38;;;1.70;;
52878;SDS011;38747;53.140;6.498;2022-07-19T15:14:04;5.13;;;1.65;;
52878;SDS011;38747;53.140;6.498;2022-07-19T15:16:30;5.03;;;1.67;;
52878;SDS011;38747;53.140;6.498;2022-07-19T15:18:56;5.80;;;1.70;;
52878;SDS011;38747;53.140;6.498;2022-07-19T15:21:21;5.43;;;1.75;;
52878;SDS011;38747;53.140;6.498;2022-07-19T15:23:47;3.08;;;1.63;;
52878;SDS011;38747;53.140;6.498;2022-07-19T15:26:13;2.83;;;1.50;;
52878;SDS011;38747;53.140;6.498;2022-07-19T15:28:40;5.35;;;1.85;;
52878;SDS011;38747;53.140;6.498;2022-07-19T15:31:05;3.88;;;1.60;;
52878;SDS011;38747;53.140;6.498;2022-07-19T15:33:31;6.07;;;1.80;;
52878;SDS011;38747;53.140;6.498;2022-07-19T15:35:57;2.72;;;1.60;;
52878;SDS011;38747;53.140;6.498;2022-07-19T15:38:23;2.00;;;1.38;;
52878;SDS011;38747;53.140;6.498;2022-07-19T15:40:49;6.93;;;1.67;;
52878;SDS011;38747;53.140;6.498;2022-07-19T15:43:15;9.15;;;1.90;;
52878;SDS011;38747;53.140;6.498;2022-07-19T15:45:42;5.72;;;1.70;;
52878;SDS011;38747;53.140;6.498;2022-07-19T15:48:08;3.00;;;1.40;;
52878;SDS011;38747;53.140;6.498;2022-07-19T15:50:34;3.95;;;1.90;;
52878;SDS011;38747;53.140;6.498;2022-07-19T15:53:03;5.95;;;1.67;;
52878;SDS011;38747;53.140;6.498;2022-07-19T15:55:32;3.72;;;1.70;;
52878;SDS011;38747;53.140;6.498;2022-07-19T15:57:58;6.88;;;1.70;;
52878;SDS011;38747;53.140;6.498;2022-07-19T16:00:24;2.60;;;1.83;;
52878;SDS011;38747;53.140;6.498;2022-07-19T16:02:50;4.13;;;1.60;;
52878;SDS011;38747;53.140;6.498;2022-07-19T16:05:16;6.88;;;1.60;;
52878;SDS011;38747;53.140;6.498;2022-07-19T16:07:43;2.60;;;1.58;;
52878;SDS011;38747;53.140;6.498;2022-07-19T16:10:09;5.22;;;1.98;;
52878;SDS011;38747;53.140;6.498;2022-07-19T16:12:36;3.83;;;1.75;;
52878;SDS011;38747;53.140;6.498;2022-07-19T16:15:02;3.17;;;1.70;;
52878;SDS011;38747;53.140;6.498;2022-07-19T16:17:29;2.72;;;1.70;;
52878;SDS011;38747;53.140;6.498;2022-07-19T16:19:56;3.85;;;1.70;;
52878;SDS011;38747;53.140;6.498;2022-07-19T16:22:22;3.72;;;1.55;;
52878;SDS011;38747;53.140;6.498;2022-07-19T16:24:48;5.45;;;1.80;;
52878;SDS011;38747;53.140;6.498;2022-07-19T16:27:15;5.43;;;1.90;;
52878;SDS011;38747;53.140;6.498;2022-07-19T16:29:44;3.47;;;1.58;;
52878;SDS011;38747;53.140;6.498;2022-07-19T16:32:10;4.50;;;1.70;;
52878;SDS011;38747;53.140;6.498;2022-07-19T16:34:37;7.45;;;1.65;;
52878;SDS011;38747;53.140;6.498;2022-07-19T16:37:03;5.85;;;1.90;;
52878;SDS011;38747;53.140;6.498;2022-07-19T16:39:31;3.88;;;2.00;;
52878;SDS011;38747;53.140;6.498;2022-07-19T16:41:58;2.75;;;1.77;;
52878;SDS011;38747;53.140;6.498;2022-07-19T16:44:23;5.25;;;1.80;;
52878;SDS011;38747;53.140;6.498;2022-07-19T16:46:49;4.78;;;1.88;;
52878;SDS011;38747;53.140;6.498;2022-07-19T16:49:15;3.97;;;1.60;;
52878;SDS011;38747;53.140;6.498;2022-07-19T16:51:40;5.22;;;1.67;;
52878;SDS011;38747;53.140;6.498;2022-07-19T16:54:06;4.57;;;2.03;;
52878;SDS011;38747;53.140;6.498;2022-07-19T16:56:32;3.13;;;1.80;;
52878;SDS011;38747;53.140;6.498;2022-07-19T16:58:57;8.82;;;1.83;;
52878;SDS011;38747;53.140;6.498;2022-07-19T17:01:23;2.58;;;1.88;;
52878;SDS011;38747;53.140;6.498;2022-07-19T17:03:48;4.88;;;1.95;;
52878;SDS011;38747;53.140;6.498;2022-07-19T17:06:14;3.53;;;1.83;;
52878;SDS011;38747;53.140;6.498;2022-07-19T17:08:40;4.10;;;1.85;;
52878;SDS011;38747;53.140;6.498;2022-07-19T17:11:05;4.38;;;2.10;;
52878;SDS011;38747;53.140;6.498;2022-07-19T17:13:31;4.20;;;2.15;;
52878;SDS011;38747;53.140;6.498;2022-07-19T17:15:57;2.35;;;1.83;;
52878;SDS011;38747;53.140;6.498;2022-07-19T17:18:24;7.75;;;2.40;;
52878;SDS011;38747;53.140;6.498;2022-07-19T17:20:49;7.15;;;3.75;;
52878;SDS011;38747;53.140;6.498;2022-07-19T17:23:15;5.22;;;2.30;;
52878;SDS011;38747;53.140;6.498;2022-07-19T17:25:41;5.28;;;2.80;;
52878;SDS011;38747;53.140;6.498;2022-07-19T17:28:06;5.80;;;3.00;;
52878;SDS011;38747;53.140;6.498;2022-07-19T17:30:32;3.30;;;2.47;;
52878;SDS011;38747;53.140;6.498;2022-07-19T17:32:59;4.07;;;1.90;;
52878;SDS011;38747;53.140;6.498;2022-07-19T17:35:24;3.90;;;2.08;;
52878;SDS011;38747;53.140;6.498;2022-07-19T17:37:50;5.95;;;2.25;;
52878;SDS011;38747;53.140;6.498;2022-07-19T17:40:15;4.75;;;2.22;;
52878;SDS011;38747;53.140;6.498;2022-07-19T17:42:41;4.70;;;1.80;;
52878;SDS011;38747;53.140;6.498;2022-07-19T17:45:07;5.22;;;2.03;;
52878;SDS011;38747;53.140;6.498;2022-07-19T17:47:33;6.00;;;2.00;;
52878;SDS011;38747;53.140;6.498;2022-07-19T17:49:59;4.00;;;2.10;;
52878;SDS011;38747;53.140;6.498;2022-07-19T17:52:24;3.67;;;2.13;;
52878;SDS011;38747;53.140;6.498;2022-07-19T17:54:50;4.55;;;2.00;;
52878;SDS011;38747;53.140;6.498;2022-07-19T17:57:16;4.72;;;2.10;;
52878;SDS011;38747;53.140;6.498;2022-07-19T17:59:43;6.38;;;2.03;;
52878;SDS011;38747;53.140;6.498;2022-07-19T18:02:09;2.22;;;1.60;;
52878;SDS011;38747;53.140;6.498;2022-07-19T18:04:35;2.92;;;1.80;;
52878;SDS011;38747;53.140;6.498;2022-07-19T18:07:01;4.60;;;1.95;;
52878;SDS011;38747;53.140;6.498;2022-07-19T18:09:27;7.45;;;1.98;;
52878;SDS011;38747;53.140;6.498;2022-07-19T18:11:53;4.63;;;1.90;;
52878;SDS011;38747;53.140;6.498;2022-07-19T18:14:18;4.68;;;2.17;;